Time;durP1;ratioP1;P1;durP2;ratioP2;P2;SDS_P1;SDS_P2;PMS_P1;PMS_P2;Temp;Humidity;BMP_temperature;BMP_pressure;BME280_temperature;BME280_humidity;BME280_pressure;Samples;Min_cycle;Max_cycle;Signal;HPM_P1;HPM_P2
2023/04/14 00:01:32;;;;;;;;;;;15.40;80.70;;;;;;5116715;28;19999;-70
2023/04/14 00:03:57;;;;;;;;;;;15.30;80.70;;;;;;5116185;28;20352;-71
2023/04/14 00:06:23;;;;;;;;;;;15.30;80.80;;;;;;5117169;28;19916;-71
2023/04/14 00:08:48;;;;;;;;;;;15.30;80.80;;;;;;5115884;28;19962;-71
2023/04/14 00:11:14;;;;;;;;;;;15.30;80.80;;;;;;5116254;28;19915;-70
2023/04/14 00:13:39;;;;;;;;;;;15.30;80.80;;;;;;5115875;28;19908;-68
2023/04/14 00:16:05;;;;;;;;;;;15.30;80.90;;;;;;5116194;28;19914;-69
2023/04/14 00:18:31;;;;;;;;;;;15.30;80.90;;;;;;5116069;28;19908;-69
2023/04/14 00:20:56;;;;;;;;;;;15.30;81.00;;;;;;5114733;28;20399;-69
2023/04/14 00:23:22;;;;;;;;;;;15.30;80.90;;;;;;5115974;28;19908;-69
2023/04/14 00:25:50;;;;;;;;;;;15.20;80.90;;;;;;5116233;28;19914;-70
2023/04/14 00:28:16;;;;;;;;;;;15.20;80.90;;;;;;5115833;28;19916;-69
2023/04/14 00:30:41;;;;;;;;;;;15.20;81.00;;;;;;5115843;28;20408;-69
2023/04/14 00:33:07;;;;;;;;;;;15.20;81.00;;;;;;5114587;28;19954;-70
2023/04/14 00:35:32;;;;;;;;;;;15.20;81.10;;;;;;5115765;28;20265;-70
2023/04/14 00:37:58;;;;;;;;;;;15.20;81.00;;;;;;5114407;28;19907;-69
2023/04/14 00:40:23;;;;;;;;;;;15.20;81.10;;;;;;5115594;28;19934;-70
2023/04/14 00:42:49;;;;;;;;;;;15.20;81.10;;;;;;5115541;28;20366;-69
2023/04/14 00:45:15;;;;;;;;;;;15.20;81.10;;;;;;5115581;28;19958;-69
2023/04/14 00:47:41;;;;;;;;;;;15.20;81.20;;;;;;5114349;28;20010;-69
2023/04/14 00:50:08;;;;;;;;;;;15.20;81.20;;;;;;5115471;28;19907;-70
2023/04/14 00:52:35;;;;;;;;;;;15.20;81.20;;;;;;5115073;28;19939;-70
2023/04/14 00:55:01;;;;;;;;;;;15.20;81.20;;;;;;5115385;28;20375;-69
2023/04/14 00:57:28;;;;;;;;;;;15.20;81.20;;;;;;5114732;27;19939;-69
2023/04/14 00:59:53;;;;;;;;;;;15.20;81.30;;;;;;5114891;28;19908;-70
2023/04/14 01:02:19;;;;;;;;;;;15.10;81.20;;;;;;5114972;28;19919;-69
2023/04/14 01:04:44;;;;;;;;;;;15.10;81.20;;;;;;5115221;28;19915;-69
2023/04/14 01:07:10;;;;;;;;;;;15.10;81.20;;;;;;5115287;28;19967;-69
2023/04/14 01:09:36;;;;;;;;;;;15.10;81.30;;;;;;5114872;28;19939;-70
2023/04/14 01:12:06;;;;;;;;;;;15.10;81.30;;;;;;5113795;28;19951;-69
2023/04/14 01:14:31;;;;;;;;;;;15.10;81.30;;;;;;5115047;28;19907;-70
2023/04/14 01:17:02;;;;;;;;;;;15.10;81.30;;;;;;5114729;28;20346;-69
2023/04/14 01:19:28;;;;;;;;;;;15.10;81.30;;;;;;5114947;27;19994;-70
2023/04/14 01:21:55;;;;;;;;;;;15.10;81.40;;;;;;5114586;28;19950;-70
2023/04/14 01:24:21;;;;;;;;;;;15.10;81.40;;;;;;5114850;28;19908;-69
2023/04/14 01:26:51;;;;;;;;;;;15.10;81.40;;;;;;5113177;28;19916;-69
2023/04/14 01:29:35;;;;;;;;;;;15.10;81.40;;;;;;5114902;28;19908;-70
2023/04/14 01:32:05;;;;;;;;;;;15.10;81.40;;;;;;5114738;28;20377;-70
2023/04/14 01:34:33;;;;;;;;;;;15.10;81.50;;;;;;5114744;28;19908;-70
2023/04/14 01:37:02;;;;;;;;;;;15.00;81.40;;;;;;5114976;28;20311;-69
2023/04/14 01:39:30;;;;;;;;;;;15.00;81.40;;;;;;5114684;28;20418;-69
2023/04/14 01:41:57;;;;;;;;;;;15.00;81.40;;;;;;5113182;28;19908;-70
2023/04/14 01:44:23;;;;;;;;;;;15.00;81.40;;;;;;5114727;28;19912;-70
2023/04/14 01:46:50;;;;;;;;;;;15.00;81.50;;;;;;5114536;28;20089;-69
2023/04/14 01:49:17;;;;;;;;;;;15.00;81.50;;;;;;5114551;28;19912;-70
2023/04/14 01:51:43;;;;;;;;;;;15.00;81.50;;;;;;5113370;28;19931;-69
2023/04/14 01:54:10;;;;;;;;;;;15.00;81.50;;;;;;5114355;28;20286;-69
2023/04/14 01:56:37;;;;;;;;;;;15.00;81.50;;;;;;5114260;28;19994;-70
2023/04/14 01:59:03;;;;;;;;;;;15.00;82.10;;;;;;5114522;28;19908;-70
2023/04/14 02:01:29;;;;;;;;;;;15.00;81.60;;;;;;5114531;28;20435;-70
2023/04/14 02:03:54;;;;;;;;;;;15.00;81.60;;;;;;5114477;28;19955;-70
2023/04/14 02:06:21;;;;;;;;;;;15.00;81.60;;;;;;5112830;28;20292;-69
2023/04/14 02:08:47;;;;;;;;;;;15.00;81.60;;;;;;5114433;28;19962;-69
2023/04/14 02:11:13;;;;;;;;;;;15.00;81.60;;;;;;5118550;28;19908;-69
2023/04/14 02:13:40;;;;;;;;;;;15.00;81.60;;;;;;5118663;28;19954;-69
2023/04/14 02:16:07;;;;;;;;;;;15.00;81.60;;;;;;5118510;28;20007;-69
2023/04/14 02:18:34;;;;;;;;;;;15.00;81.60;;;;;;5118468;28;19929;-69
2023/04/14 02:21:02;;;;;;;;;;;15.00;81.60;;;;;;5118390;28;20014;-69
2023/04/14 02:23:28;;;;;;;;;;;15.00;81.60;;;;;;5118355;28;19915;-69
2023/04/14 02:26:00;;;;;;;;;;;15.00;81.70;;;;;;5118312;27;19907;-69
2023/04/14 02:28:27;;;;;;;;;;;15.00;81.70;;;;;;5118002;28;19981;-70
2023/04/14 02:30:53;;;;;;;;;;;15.00;81.70;;;;;;5118220;28;20382;-70
2023/04/14 02:33:20;;;;;;;;;;;14.90;81.60;;;;;;5117911;28;20278;-69
2023/04/14 02:36:09;;;;;;;;;;;15.00;81.70;;;;;;5117817;28;19908;-69
2023/04/14 02:38:35;;;;;;;;;;;14.90;81.60;;;;;;5112169;28;19915;-69
2023/04/14 02:41:03;;;;;;;;;;;14.90;81.70;;;;;;5118341;28;19908;-70
2023/04/14 02:43:30;;;;;;;;;;;14.90;81.70;;;;;;5118034;28;19930;-69
2023/04/14 02:45:57;;;;;;;;;;;14.90;82.20;;;;;;5117943;28;19930;-70
2023/04/14 02:48:25;;;;;;;;;;;14.90;81.70;;;;;;5117826;28;19916;-69
2023/04/14 02:50:52;;;;;;;;;;;14.90;81.70;;;;;;5117599;28;20017;-69
2023/04/14 02:53:20;;;;;;;;;;;14.90;81.70;;;;;;5117790;27;19907;-69
2023/04/14 02:55:46;;;;;;;;;;;14.90;81.80;;;;;;5117737;28;19914;-69
2023/04/14 02:58:12;;;;;;;;;;;14.90;81.70;;;;;;5117660;28;19915;-68
2023/04/14 03:00:39;;;;;;;;;;;14.90;81.70;;;;;;5116335;28;19908;-69
2023/04/14 03:03:05;;;;;;;;;;;14.90;81.80;;;;;;5117309;28;19915;-69
2023/04/14 03:05:31;;;;;;;;;;;14.90;81.70;;;;;;5117820;28;19916;-69
2023/04/14 03:07:58;;;;;;;;;;;14.90;81.80;;;;;;5117164;27;20316;-69
2023/04/14 03:10:24;;;;;;;;;;;14.90;81.80;;;;;;5116176;28;19914;-69
2023/04/14 03:12:51;;;;;;;;;;;14.90;81.80;;;;;;5117632;28;20349;-69
2023/04/14 03:15:17;;;;;;;;;;;14.90;81.80;;;;;;5117321;28;20305;-70
2023/04/14 03:17:43;;;;;;;;;;;14.90;81.90;;;;;;5117230;28;19907;-69
2023/04/14 03:20:10;;;;;;;;;;;14.90;81.80;;;;;;5117596;28;19911;-69
2023/04/14 03:22:39;;;;;;;;;;;14.90;81.80;;;;;;5116461;28;19908;-69
2023/04/14 03:25:05;;;;;;;;;;;14.80;81.80;;;;;;5117139;28;19922;-69
2023/04/14 03:27:31;;;;;;;;;;;14.90;81.90;;;;;;5117116;28;19916;-69
2023/04/14 03:30:00;;;;;;;;;;;14.80;81.90;;;;;;5117021;28;20274;-70
2023/04/14 03:32:28;;;;;;;;;;;14.90;81.90;;;;;;5116910;28;20022;-69
2023/04/14 03:34:55;;;;;;;;;;;14.90;81.90;;;;;;5116855;28;19915;-70
2023/04/14 03:37:23;;;;;;;;;;;14.90;81.90;;;;;;5115664;28;19920;-69
2023/04/14 03:39:49;;;;;;;;;;;14.80;81.90;;;;;;5115925;28;20312;-70
2023/04/14 03:42:16;;;;;;;;;;;14.80;81.90;;;;;;5116938;28;19920;-69
2023/04/14 03:44:48;;;;;;;;;;;14.80;81.90;;;;;;5116923;28;19908;-69
2023/04/14 03:47:14;;;;;;;;;;;14.80;81.90;;;;;;5115425;28;19916;-69
2023/04/14 03:49:42;;;;;;;;;;;14.80;81.90;;;;;;5115437;28;19953;-69
2023/04/14 03:52:11;;;;;;;;;;;14.80;81.90;;;;;;5116685;28;19960;-69
2023/04/14 03:54:37;;;;;;;;;;;14.80;81.90;;;;;;5116587;28;20361;-70
2023/04/14 03:57:05;;;;;;;;;;;14.80;81.90;;;;;;5116584;28;19908;-70
2023/04/14 03:59:31;;;;;;;;;;;14.80;81.90;;;;;;5116802;28;19958;-69
2023/04/14 04:01:57;;;;;;;;;;;14.80;81.90;;;;;;5116171;28;19915;-69
2023/04/14 04:04:25;;;;;;;;;;;14.80;81.90;;;;;;5115048;28;19912;-69
2023/04/14 04:06:51;;;;;;;;;;;14.80;81.90;;;;;;5115828;28;20402;-69
2023/04/14 04:09:18;;;;;;;;;;;14.80;81.90;;;;;;5116337;28;19908;-69
2023/04/14 04:11:45;;;;;;;;;;;14.80;81.90;;;;;;5116109;28;19915;-69
2023/04/14 04:14:14;;;;;;;;;;;14.80;82.00;;;;;;5116478;28;19907;-69
2023/04/14 04:16:41;;;;;;;;;;;14.80;82.00;;;;;;5115860;28;20007;-69
2023/04/14 04:19:07;;;;;;;;;;;14.80;82.00;;;;;;5114653;28;19915;-69
2023/04/14 04:21:34;;;;;;;;;;;14.80;82.00;;;;;;5115720;28;20075;-69
2023/04/14 04:24:00;;;;;;;;;;;14.80;82.00;;;;;;5115786;28;19988;-69
2023/04/14 04:26:26;;;;;;;;;;;14.80;82.00;;;;;;5115544;28;19923;-69
2023/04/14 04:28:53;;;;;;;;;;;14.80;82.00;;;;;;5115534;28;20320;-69
2023/04/14 04:31:20;;;;;;;;;;;14.70;82.00;;;;;;5115806;28;19911;-69
2023/04/14 04:33:47;;;;;;;;;;;14.80;82.00;;;;;;5114533;28;20359;-68
2023/04/14 04:36:12;;;;;;;;;;;14.70;82.00;;;;;;5115669;28;19907;-70
2023/04/14 04:38:38;;;;;;;;;;;14.70;82.00;;;;;;5115599;28;19914;-69
2023/04/14 04:41:03;;;;;;;;;;;14.70;82.00;;;;;;5115357;28;20007;-70
2023/04/14 04:43:29;;;;;;;;;;;14.70;82.10;;;;;;5114112;28;19924;-70
2023/04/14 04:45:58;;;;;;;;;;;14.70;82.10;;;;;;5115543;28;20007;-69
2023/04/14 04:48:23;;;;;;;;;;;14.70;82.00;;;;;;5115195;28;19922;-69
2023/04/14 04:50:49;;;;;;;;;;;14.70;82.00;;;;;;5115177;28;19916;-69
2023/04/14 04:53:14;;;;;;;;;;;14.70;82.10;;;;;;5114194;28;19960;-69
2023/04/14 04:55:40;;;;;;;;;;;14.70;82.10;;;;;;5115046;27;20259;-69
2023/04/14 04:58:07;;;;;;;;;;;14.70;82.10;;;;;;5115081;28;20004;-69
2023/04/14 05:00:32;;;;;;;;;;;14.70;82.10;;;;;;5115138;28;19908;-70
2023/04/14 05:02:57;;;;;;;;;;;14.70;82.10;;;;;;5113786;28;19908;-69
2023/04/14 05:05:23;;;;;;;;;;;14.70;82.10;;;;;;5114882;28;19947;-69
2023/04/14 05:07:49;;;;;;;;;;;14.70;82.10;;;;;;5113708;28;19920;-70
2023/04/14 05:10:14;;;;;;;;;;;14.70;82.10;;;;;;5115077;28;19908;-69
2023/04/14 05:12:40;;;;;;;;;;;14.70;82.10;;;;;;5114717;28;20346;-69
2023/04/14 05:15:07;;;;;;;;;;;14.70;82.10;;;;;;5115304;28;19941;-70
2023/04/14 05:17:32;;;;;;;;;;;14.70;82.10;;;;;;5113656;28;19908;-69
2023/04/14 05:19:58;;;;;;;;;;;14.70;82.20;;;;;;5114786;28;20270;-69
2023/04/14 05:22:23;;;;;;;;;;;14.70;82.20;;;;;;5114467;28;19915;-70
2023/04/14 05:24:49;;;;;;;;;;;14.70;82.10;;;;;;5114879;28;19956;-69
2023/04/14 05:27:15;;;;;;;;;;;14.70;82.20;;;;;;5114434;28;20259;-68
2023/04/14 05:29:40;;;;;;;;;;;14.70;82.20;;;;;;5114747;28;20374;-69
2023/04/14 05:32:06;;;;;;;;;;;14.70;82.20;;;;;;5113441;28;19999;-69
2023/04/14 05:34:31;;;;;;;;;;;14.70;82.20;;;;;;5113210;28;19953;-69
2023/04/14 05:36:57;;;;;;;;;;;14.60;82.20;;;;;;5114155;28;19908;-69
2023/04/14 05:39:22;;;;;;;;;;;14.70;82.20;;;;;;5114162;28;19953;-69
2023/04/14 05:41:48;;;;;;;;;;;14.70;82.20;;;;;;5114081;28;19908;-68
2023/04/14 05:44:13;;;;;;;;;;;14.70;82.20;;;;;;5113999;28;19912;-69
2023/04/14 05:46:40;;;;;;;;;;;14.70;82.20;;;;;;5114323;28;20362;-69
2023/04/14 05:49:05;;;;;;;;;;;14.70;82.20;;;;;;5113144;28;19934;-69
2023/04/14 05:51:31;;;;;;;;;;;14.70;82.20;;;;;;5114075;28;19908;-68
2023/04/14 05:53:56;;;;;;;;;;;14.60;82.20;;;;;;5114391;28;19968;-69
2023/04/14 05:56:22;;;;;;;;;;;14.70;82.20;;;;;;5114366;28;19908;-69
2023/04/14 05:58:47;;;;;;;;;;;14.60;82.20;;;;;;5114011;28;19998;-68
2023/04/14 06:01:13;;;;;;;;;;;14.60;82.20;;;;;;5114557;28;20053;-69
2023/04/14 06:03:38;;;;;;;;;;;14.70;82.20;;;;;;5113950;28;19915;-69
2023/04/14 06:06:04;;;;;;;;;;;14.60;82.20;;;;;;5114232;28;20327;-69
2023/04/14 06:08:29;;;;;;;;;;;14.60;82.20;;;;;;5114181;28;19922;-69
2023/04/14 06:10:55;;;;;;;;;;;14.60;82.20;;;;;;5112866;28;20007;-69
2023/04/14 06:13:21;;;;;;;;;;;14.60;82.20;;;;;;5113776;28;19908;-69
2023/04/14 06:15:50;;;;;;;;;;;14.60;82.20;;;;;;5114372;28;19931;-69
2023/04/14 06:18:15;;;;;;;;;;;14.60;82.30;;;;;;5114033;27;19908;-67
2023/04/14 06:20:41;;;;;;;;;;;14.60;82.20;;;;;;5112943;28;20022;-68
2023/04/14 06:23:06;;;;;;;;;;;14.60;82.30;;;;;;5113724;28;19912;-69
2023/04/14 06:25:33;;;;;;;;;;;14.60;82.20;;;;;;5113811;28;19912;-69
2023/04/14 06:28:02;;;;;;;;;;;14.60;82.20;;;;;;5113656;28;20358;-69
2023/04/14 06:30:31;;;;;;;;;;;14.70;82.20;;;;;;5113996;28;19960;-70
2023/04/14 06:32:57;;;;;;;;;;;14.70;82.20;;;;;;5114033;28;19931;-69
2023/04/14 06:35:22;;;;;;;;;;;14.70;82.20;;;;;;5112730;28;19908;-69
2023/04/14 06:37:48;;;;;;;;;;;14.70;82.20;;;;;;5113955;28;20319;-68
2023/04/14 06:40:13;;;;;;;;;;;14.70;82.00;;;;;;5113861;28;19915;-69
2023/04/14 06:42:39;;;;;;;;;;;14.80;81.90;;;;;;5113429;28;19946;-69
2023/04/14 06:45:04;;;;;;;;;;;14.80;81.90;;;;;;5113929;28;19984;-69
2023/04/14 06:47:30;;;;;;;;;;;14.90;81.90;;;;;;5113688;28;20266;-69
2023/04/14 06:49:56;;;;;;;;;;;14.90;81.80;;;;;;5112606;28;19943;-69
2023/04/14 06:52:21;;;;;;;;;;;14.90;81.70;;;;;;5113853;28;19965;-69
2023/04/14 06:54:47;;;;;;;;;;;14.90;81.70;;;;;;5112589;28;19907;-67
2023/04/14 06:57:12;;;;;;;;;;;14.90;81.60;;;;;;5115808;28;19908;-69
2023/04/14 06:59:38;;;;;;;;;;;14.90;81.60;;;;;;5117315;28;19907;-69
2023/04/14 07:02:03;;;;;;;;;;;14.90;81.50;;;;;;5116047;28;19915;-69
2023/04/14 07:04:29;;;;;;;;;;;15.00;81.50;;;;;;5117268;28;20247;-69
2023/04/14 07:06:57;;;;;;;;;;;15.00;81.50;;;;;;5117177;28;19916;-69
2023/04/14 07:09:23;;;;;;;;;;;15.00;81.50;;;;;;5115894;28;19908;-70
2023/04/14 07:11:48;;;;;;;;;;;15.00;81.40;;;;;;5117291;28;19911;-70
2023/04/14 07:14:14;;;;;;;;;;;15.00;81.40;;;;;;5117218;27;19998;-70
2023/04/14 07:16:39;;;;;;;;;;;15.00;81.30;;;;;;5117235;28;19915;-70
2023/04/14 07:19:05;;;;;;;;;;;15.00;81.30;;;;;;5116783;28;20334;-70
2023/04/14 07:21:31;;;;;;;;;;;15.10;81.30;;;;;;5115828;28;20449;-68
2023/04/14 07:23:56;;;;;;;;;;;15.00;81.20;;;;;;5117312;28;19952;-69
2023/04/14 07:26:22;;;;;;;;;;;15.10;81.30;;;;;;5116884;28;19907;-69
2023/04/14 07:28:47;;;;;;;;;;;15.00;81.20;;;;;;5115592;28;19907;-68
2023/04/14 07:31:13;;;;;;;;;;;15.00;81.20;;;;;;5115721;28;19907;-69
2023/04/14 07:33:38;;;;;;;;;;;15.10;81.20;;;;;;5115579;28;20357;-69
2023/04/14 07:36:04;;;;;;;;;;;15.00;81.10;;;;;;5115422;28;19931;-70
2023/04/14 07:38:31;;;;;;;;;;;15.10;81.20;;;;;;5116344;28;19907;-67
2023/04/14 07:40:56;;;;;;;;;;;15.10;81.20;;;;;;5115370;28;19908;-67
2023/04/14 07:43:22;;;;;;;;;;;15.10;81.10;;;;;;5116827;28;19926;-68
2023/04/14 07:45:48;;;;;;;;;;;15.10;81.10;;;;;;5116350;28;19915;-67
2023/04/14 07:48:13;;;;;;;;;;;15.10;81.10;;;;;;5116567;28;20266;-68
2023/04/14 07:50:39;;;;;;;;;;;15.10;81.10;;;;;;5116400;28;19911;-69
2023/04/14 07:53:05;;;;;;;;;;;15.10;81.00;;;;;;5116466;28;19915;-67
2023/04/14 07:55:31;;;;;;;;;;;15.10;81.00;;;;;;5116608;28;19908;-68
2023/04/14 07:57:56;;;;;;;;;;;15.10;81.00;;;;;;5116342;27;20002;-69
2023/04/14 08:00:22;;;;;;;;;;;15.10;81.00;;;;;;5116287;28;20011;-69
2023/04/14 08:02:47;;;;;;;;;;;15.10;81.00;;;;;;5116127;28;19907;-68
2023/04/14 08:05:13;;;;;;;;;;;15.20;81.00;;;;;;5116333;28;19908;-69
2023/04/14 08:07:38;;;;;;;;;;;15.20;80.90;;;;;;5114615;28;19926;-69
2023/04/14 08:10:04;;;;;;;;;;;15.20;80.90;;;;;;5116451;28;20343;-69
2023/04/14 08:12:30;;;;;;;;;;;15.20;80.90;;;;;;5114817;28;20007;-69
2023/04/14 08:14:56;;;;;;;;;;;15.20;80.90;;;;;;5116419;28;19990;-69
2023/04/14 08:17:22;;;;;;;;;;;15.20;80.90;;;;;;5115961;28;19915;-68
2023/04/14 08:19:47;;;;;;;;;;;15.20;80.90;;;;;;5115946;28;19999;-68
2023/04/14 08:22:12;;;;;;;;;;;15.20;80.90;;;;;;5115537;28;19952;-68
2023/04/14 08:24:38;;;;;;;;;;;15.20;80.90;;;;;;5115529;28;20358;-68
2023/04/14 08:27:04;;;;;;;;;;;15.20;80.90;;;;;;5115696;28;20247;-68
2023/04/14 08:29:30;;;;;;;;;;;15.20;80.90;;;;;;5114411;28;19919;-68
2023/04/14 08:31:55;;;;;;;;;;;15.20;80.90;;;;;;5115713;28;19907;-69
2023/04/14 08:34:21;;;;;;;;;;;15.20;80.90;;;;;;5114316;28;19992;-69
2023/04/14 08:36:46;;;;;;;;;;;15.20;80.90;;;;;;5115289;28;19908;-68
2023/04/14 08:39:12;;;;;;;;;;;15.20;80.90;;;;;;5115513;28;19911;-68
2023/04/14 08:41:38;;;;;;;;;;;15.20;80.90;;;;;;5114779;28;19953;-68
2023/04/14 08:44:04;;;;;;;;;;;15.20;80.90;;;;;;5115129;28;19927;-67
2023/04/14 08:46:30;;;;;;;;;;;15.20;80.90;;;;;;5114515;28;20255;-69
2023/04/14 08:49:03;;;;;;;;;;;15.20;80.80;;;;;;5113582;28;19958;-68
2023/04/14 08:51:41;;;;;;;;;;;15.20;80.80;;;;;;5114091;28;19908;-68
2023/04/14 08:54:07;;;;;;;;;;;15.20;80.80;;;;;;5113919;28;19908;-69
2023/04/14 08:56:34;;;;;;;;;;;15.20;80.80;;;;;;5113556;28;19947;-69
2023/04/14 08:59:00;;;;;;;;;;;15.20;80.80;;;;;;5115113;28;20003;-69
2023/04/14 09:01:29;;;;;;;;;;;15.20;80.80;;;;;;5115412;28;19908;-69
2023/04/14 09:03:55;;;;;;;;;;;15.20;80.80;;;;;;5113790;28;19912;-69
2023/04/14 09:06:21;;;;;;;;;;;15.20;80.80;;;;;;5114668;28;19907;-68
2023/04/14 09:08:47;;;;;;;;;;;15.20;80.80;;;;;;5115028;28;20266;-67
2023/04/14 09:11:14;;;;;;;;;;;15.20;80.80;;;;;;5113615;28;19907;-69
2023/04/14 09:13:40;;;;;;;;;;;15.20;80.80;;;;;;5114959;28;20048;-68
2023/04/14 09:16:06;;;;;;;;;;;15.20;80.80;;;;;;5114869;28;19953;-69
2023/04/14 09:18:32;;;;;;;;;;;15.20;80.80;;;;;;5112769;28;19907;-69
2023/04/14 09:20:58;;;;;;;;;;;15.20;80.80;;;;;;5114138;28;20407;-69
2023/04/14 09:23:23;;;;;;;;;;;15.20;80.80;;;;;;5113490;28;19908;-68
2023/04/14 09:25:49;;;;;;;;;;;15.20;80.80;;;;;;5114927;28;20372;-68
2023/04/14 09:28:15;;;;;;;;;;;15.20;80.80;;;;;;5113153;28;19915;-68
2023/04/14 09:30:42;;;;;;;;;;;15.20;80.80;;;;;;5113276;28;19908;-68
2023/04/14 09:33:16;;;;;;;;;;;15.20;80.80;;;;;;5114540;28;19999;-68
2023/04/14 09:35:44;;;;;;;;;;;15.20;80.80;;;;;;5114991;28;19908;-68
2023/04/14 09:38:10;;;;;;;;;;;15.20;80.80;;;;;;5114607;28;19922;-68
2023/04/14 09:40:37;;;;;;;;;;;15.20;80.80;;;;;;5114494;28;19908;-68
2023/04/14 09:43:03;;;;;;;;;;;15.20;81.30;;;;;;5114381;28;19927;-69
2023/04/14 09:45:43;;;;;;;;;;;15.20;80.80;;;;;;5114468;28;19911;-69
2023/04/14 09:48:09;;;;;;;;;;;15.20;80.80;;;;;;5113874;28;19972;-68
2023/04/14 09:50:54;;;;;;;;;;;15.20;80.80;;;;;;5112624;28;19908;-68
2023/04/14 09:53:30;;;;;;;;;;;15.20;80.80;;;;;;5114168;28;19908;-67
2023/04/14 09:55:57;;;;;;;;;;;15.20;80.80;;;;;;5113939;28;19915;-67
2023/04/14 09:58:22;;;;;;;;;;;15.20;80.80;;;;;;5114549;28;20358;-67
2023/04/14 10:00:51;;;;;;;;;;;15.20;80.80;;;;;;5114581;28;19973;-68
2023/04/14 10:03:30;;;;;;;;;;;15.30;80.80;;;;;;5114224;28;19908;-68
2023/04/14 10:05:56;;;;;;;;;;;15.30;80.90;;;;;;5114219;28;19908;-67
2023/04/14 10:08:32;;;;;;;;;;;15.20;80.80;;;;;;5114117;28;20388;-67
2023/04/14 10:11:11;;;;;;;;;;;15.30;80.80;;;;;;5114499;28;19915;-67
2023/04/14 10:13:37;;;;;;;;;;;15.30;80.80;;;;;;5113933;28;20003;-69
2023/04/14 10:16:02;;;;;;;;;;;15.30;80.80;;;;;;5113513;28;19958;-67
2023/04/14 10:18:28;;;;;;;;;;;15.20;80.70;;;;;;5113685;28;19914;-67
2023/04/14 10:20:54;;;;;;;;;;;15.30;80.80;;;;;;5112952;28;19908;-67
2023/04/14 10:23:20;;;;;;;;;;;15.20;80.80;;;;;;5114346;28;20002;-67
2023/04/14 10:25:46;;;;;;;;;;;15.20;80.80;;;;;;5113897;27;19908;-68
2023/04/14 10:28:11;;;;;;;;;;;15.20;80.80;;;;;;5113898;28;19967;-67
2023/04/14 10:30:38;;;;;;;;;;;15.20;80.80;;;;;;5113958;28;19912;-67
2023/04/14 10:33:04;;;;;;;;;;;15.20;80.90;;;;;;5117274;28;19907;-67
2023/04/14 10:35:36;;;;;;;;;;;15.20;80.90;;;;;;5117744;28;19968;-68
2023/04/14 10:38:03;;;;;;;;;;;15.30;80.90;;;;;;5116549;28;19951;-68
2023/04/14 10:40:43;;;;;;;;;;;15.30;80.90;;;;;;5117742;28;19973;-68
2023/04/14 10:43:11;;;;;;;;;;;15.30;80.90;;;;;;5116137;28;19924;-68
2023/04/14 10:45:52;;;;;;;;;;;15.30;80.90;;;;;;5117546;28;20004;-68
2023/04/14 10:48:18;;;;;;;;;;;15.30;80.90;;;;;;5117593;28;20070;-68
2023/04/14 10:50:49;;;;;;;;;;;15.30;80.90;;;;;;5117465;28;19911;-68
2023/04/14 10:53:15;;;;;;;;;;;15.30;80.90;;;;;;5117408;28;19907;-68
2023/04/14 10:55:45;;;;;;;;;;;15.30;80.80;;;;;;5115936;28;20010;-67
2023/04/14 10:58:16;;;;;;;;;;;15.30;80.80;;;;;;5115901;28;20350;-68
2023/04/14 11:00:43;;;;;;;;;;;15.30;80.80;;;;;;5116088;28;19947;-67
2023/04/14 11:03:10;;;;;;;;;;;15.40;80.80;;;;;;5117355;28;19907;-68
2023/04/14 11:05:41;;;;;;;;;;;15.40;80.80;;;;;;5115970;28;19918;-68
2023/04/14 11:08:18;;;;;;;;;;;15.40;80.80;;;;;;5116004;28;19922;-68
2023/04/14 11:10:50;;;;;;;;;;;15.40;80.80;;;;;;5117574;28;19915;-68
2023/04/14 11:13:15;;;;;;;;;;;15.40;80.80;;;;;;5116976;28;19907;-68
2023/04/14 11:15:45;;;;;;;;;;;15.40;80.80;;;;;;5115692;28;20325;-68
2023/04/14 11:18:13;;;;;;;;;;;15.40;80.80;;;;;;5115683;28;19951;-68
2023/04/14 11:20:39;;;;;;;;;;;15.40;80.80;;;;;;5117550;28;20242;-68
2023/04/14 11:23:04;;;;;;;;;;;15.40;80.80;;;;;;5117178;28;20259;-68
2023/04/14 11:25:30;;;;;;;;;;;15.40;80.80;;;;;;5117050;28;19911;-68
2023/04/14 11:28:00;;;;;;;;;;;15.40;80.80;;;;;;5116676;28;19916;-67
2023/04/14 11:30:26;;;;;;;;;;;15.40;80.80;;;;;;5116622;28;19908;-68
2023/04/14 11:32:52;;;;;;;;;;;15.40;80.80;;;;;;5116782;28;19908;-68
2023/04/14 11:35:18;;;;;;;;;;;15.40;80.80;;;;;;5116278;28;19934;-68
2023/04/14 11:37:44;;;;;;;;;;;15.40;80.80;;;;;;5115473;28;19907;-69
2023/04/14 11:40:11;;;;;;;;;;;15.40;80.80;;;;;;5116501;28;19907;-67
2023/04/14 11:42:37;;;;;;;;;;;15.40;80.90;;;;;;5114474;28;20010;-68
2023/04/14 11:45:03;;;;;;;;;;;15.40;80.90;;;;;;5116896;27;20373;-67
2023/04/14 11:47:29;;;;;;;;;;;15.40;80.90;;;;;;5116412;28;19923;-68
2023/04/14 11:49:55;;;;;;;;;;;15.40;80.90;;;;;;5116158;28;19907;-67
2023/04/14 11:52:20;;;;;;;;;;;15.40;80.90;;;;;;5116423;28;20021;-68
2023/04/14 11:54:46;;;;;;;;;;;15.40;80.90;;;;;;5115125;28;19908;-68
2023/04/14 11:57:12;;;;;;;;;;;15.40;80.90;;;;;;5116173;28;19947;-67
2023/04/14 11:59:45;;;;;;;;;;;15.40;80.90;;;;;;5116234;27;19908;-67
2023/04/14 12:02:14;;;;;;;;;;;15.40;81.00;;;;;;5115883;28;19951;-67
2023/04/14 12:04:39;;;;;;;;;;;15.40;80.90;;;;;;5114957;28;19912;-67
2023/04/14 12:07:09;;;;;;;;;;;15.40;80.90;;;;;;5115671;28;19999;-67
2023/04/14 12:09:38;;;;;;;;;;;15.40;80.90;;;;;;5115968;28;20377;-67
2023/04/14 12:12:08;;;;;;;;;;;15.40;80.90;;;;;;5114683;28;19907;-67
2023/04/14 12:14:35;;;;;;;;;;;15.40;80.90;;;;;;5114660;28;19915;-67
2023/04/14 12:17:00;;;;;;;;;;;15.40;80.90;;;;;;5114490;28;19908;-67
2023/04/14 12:19:26;;;;;;;;;;;15.40;80.80;;;;;;5114398;28;20273;-66
2023/04/14 12:21:52;;;;;;;;;;;15.40;80.80;;;;;;5114360;28;19908;-67
2023/04/14 12:24:17;;;;;;;;;;;15.40;80.80;;;;;;5115025;28;19961;-67
2023/04/14 12:26:43;;;;;;;;;;;15.40;80.80;;;;;;5113965;28;20316;-68
2023/04/14 12:29:11;;;;;;;;;;;15.40;80.80;;;;;;5115380;28;19954;-68
2023/04/14 12:31:40;;;;;;;;;;;15.40;80.80;;;;;;5115939;28;20010;-67
2023/04/14 12:34:06;;;;;;;;;;;15.40;80.80;;;;;;5115337;28;20366;-67
2023/04/14 12:36:31;;;;;;;;;;;15.40;80.80;;;;;;5115566;28;19915;-67
2023/04/14 12:39:03;;;;;;;;;;;15.40;80.80;;;;;;5115793;28;19915;-68
2023/04/14 12:41:29;;;;;;;;;;;15.40;80.80;;;;;;5115579;28;19912;-68
2023/04/14 12:43:54;;;;;;;;;;;15.40;80.80;;;;;;5113882;28;20286;-69
2023/04/14 12:46:25;;;;;;;;;;;15.40;80.80;;;;;;5115402;28;20376;-69
2023/04/14 12:48:52;;;;;;;;;;;15.40;80.80;;;;;;5113426;28;21356;-68
2023/04/14 12:51:18;;;;;;;;;;;15.40;80.80;;;;;;5115209;28;20002;-69
2023/04/14 12:53:45;;;;;;;;;;;15.40;80.80;;;;;;5114015;28;19908;-68
2023/04/14 12:56:11;;;;;;;;;;;15.40;80.80;;;;;;5114679;28;20350;-68
2023/04/14 12:58:38;;;;;;;;;;;15.40;80.80;;;;;;5113500;28;19916;-69
2023/04/14 13:01:05;;;;;;;;;;;15.40;80.90;;;;;;5115286;28;19908;-68
2023/04/14 13:03:56;;;;;;;;;;;15.40;80.90;;;;;;5114872;28;19928;-68
2023/04/14 13:06:23;;;;;;;;;;;15.40;81.40;;;;;;5111136;28;19908;-68
2023/04/14 13:08:49;;;;;;;;;;;15.40;80.90;;;;;;5114990;28;19911;-68
2023/04/14 13:11:15;;;;;;;;;;;15.40;80.90;;;;;;5114314;28;19999;-68
2023/04/14 13:13:43;;;;;;;;;;;15.40;80.90;;;;;;5113571;28;19908;-68
2023/04/14 13:16:08;;;;;;;;;;;15.40;80.90;;;;;;5113628;28;19953;-69
2023/04/14 13:18:34;;;;;;;;;;;15.40;80.90;;;;;;5115088;28;20009;-68
2023/04/14 13:21:01;;;;;;;;;;;15.40;80.90;;;;;;5114699;28;20000;-68
2023/04/14 13:23:26;;;;;;;;;;;15.40;80.90;;;;;;5113587;28;20270;-67
2023/04/14 13:25:52;;;;;;;;;;;15.40;80.80;;;;;;5114924;28;19912;-68
2023/04/14 13:28:17;;;;;;;;;;;15.40;80.80;;;;;;5113151;28;19957;-68
2023/04/14 13:30:43;;;;;;;;;;;15.40;80.80;;;;;;5114636;28;19919;-68
2023/04/14 13:33:09;;;;;;;;;;;15.40;80.80;;;;;;5114588;28;19911;-68
2023/04/14 13:35:34;;;;;;;;;;;15.40;80.80;;;;;;5114583;28;20347;-68
2023/04/14 13:38:00;;;;;;;;;;;15.40;80.80;;;;;;5114504;28;19914;-68
2023/04/14 13:40:26;;;;;;;;;;;15.40;80.80;;;;;;5112952;28;19998;-68
2023/04/14 13:42:52;;;;;;;;;;;15.40;80.80;;;;;;5114544;28;20003;-68
2023/04/14 13:45:17;;;;;;;;;;;15.40;80.90;;;;;;5114279;28;19912;-68
2023/04/14 13:47:47;;;;;;;;;;;15.40;80.80;;;;;;5114335;28;20010;-68
2023/04/14 13:50:12;;;;;;;;;;;15.40;80.80;;;;;;5113762;28;19919;-68
2023/04/14 13:52:39;;;;;;;;;;;15.40;80.80;;;;;;5114414;28;20010;-68
2023/04/14 13:55:05;;;;;;;;;;;15.40;80.80;;;;;;5112958;28;19915;-68
2023/04/14 13:57:31;;;;;;;;;;;15.40;80.90;;;;;;5114182;28;20282;-68
2023/04/14 13:59:56;;;;;;;;;;;15.40;80.90;;;;;;5114413;28;19988;-68
2023/04/14 14:02:22;;;;;;;;;;;15.40;80.90;;;;;;5114266;28;20368;-68
2023/04/14 14:04:48;;;;;;;;;;;15.40;80.90;;;;;;5113917;28;20385;-68
2023/04/14 14:07:13;;;;;;;;;;;15.40;80.90;;;;;;5116896;28;19919;-68
2023/04/14 14:09:38;;;;;;;;;;;15.40;80.90;;;;;;5117765;27;20018;-68
2023/04/14 14:12:04;;;;;;;;;;;15.40;80.90;;;;;;5116937;28;20362;-68
2023/04/14 14:14:29;;;;;;;;;;;15.40;81.00;;;;;;5117990;28;19933;-67